Time;durP1;ratioP1;P1;durP2;ratioP2;P2;SDS_P1;SDS_P2;PMS_P1;PMS_P2;Temp;Humidity;BMP_temperature;BMP_pressure;BME280_temperature;BME280_humidity;BME280_pressure;Samples;Min_cycle;Max_cycle;Signal;HPM_P1;HPM_P2
2021/05/07 00:01:29;;;;;;;0.80;0.50;;;21.10;50.10;;;;;;5078535;28;20028;-74
2021/05/07 00:03:55;;;;;;;0.98;0.45;;;21.00;50.80;;;;;;5076767;28;20027;-74
2021/05/07 00:06:22;;;;;;;0.52;0.52;;;20.80;51.30;;;;;;5073312;28;20021;-73
2021/05/07 00:08:48;;;;;;;0.60;0.60;;;20.90;51.20;;;;;;5075912;28;20036;-73
2021/05/07 00:11:18;;;;;;;0.50;0.50;;;21.00;51.20;;;;;;5072582;28;20035;-73
2021/05/07 00:13:46;;;;;;;1.92;1.77;;;21.00;50.70;;;;;;5075734;28;20120;-73
2021/05/07 00:16:13;;;;;;;0.85;0.68;;;21.00;50.90;;;;;;5073225;28;20633;-75
2021/05/07 00:18:39;;;;;;;0.47;0.47;;;21.10;50.70;;;;;;5074056;28;20111;-74
2021/05/07 00:21:06;;;;;;;0.40;0.40;;;21.30;49.90;;;;;;5072081;28;20451;-75
2021/05/07 00:23:36;;;;;;;0.50;0.50;;;21.20;49.90;;;;;;5072348;28;20345;-73
2021/05/07 00:26:04;;;;;;;0.70;0.57;;;21.20;50.10;;;;;;5073151;28;20120;-74
2021/05/07 00:28:31;;;;;;;0.70;0.70;;;21.20;49.80;;;;;;5073297;28;20097;-74
2021/05/07 00:30:58;;;;;;;0.50;0.50;;;21.10;50.10;;;;;;5070801;28;20055;-74
2021/05/07 00:33:25;;;;;;;0.73;0.50;;;21.00;50.00;;;;;;5067793;28;20048;-75
2021/05/07 00:35:51;;;;;;;1.17;0.47;;;21.10;50.10;;;;;;5069821;28;20036;-71
2021/05/07 00:38:17;;;;;;;0.90;0.47;;;21.10;49.90;;;;;;5069437;28;20054;-70
2021/05/07 00:40:44;;;;;;;1.27;0.50;;;21.00;50.00;;;;;;5074507;28;20028;-71
2021/05/07 00:43:11;;;;;;;2.83;0.50;;;21.00;50.00;;;;;;5069056;28;20021;-71
2021/05/07 00:45:38;;;;;;;0.63;0.63;;;21.10;49.40;;;;;;5075445;28;20454;-71
2021/05/07 00:48:09;;;;;;;0.95;0.70;;;21.30;49.00;;;;;;5070565;28;20044;-71
2021/05/07 00:50:37;;;;;;;0.50;0.50;;;21.10;49.40;;;;;;5071150;28;20024;-70
2021/05/07 00:53:05;;;;;;;0.88;0.55;;;21.20;48.80;;;;;;5073131;28;20025;-71
2021/05/07 00:55:34;;;;;;;0.50;0.50;;;21.20;49.10;;;;;;5076009;28;20404;-71
2021/05/07 00:58:00;;;;;;;1.08;0.50;;;21.10;49.40;;;;;;5079164;28;20529;-71
2021/05/07 01:00:28;;;;;;;0.50;0.50;;;21.10;49.20;;;;;;5080418;28;20516;-70
2021/05/07 01:02:54;;;;;;;0.40;0.40;;;21.10;49.10;;;;;;5071292;28;20556;-71
2021/05/07 01:05:22;;;;;;;1.25;0.40;;;21.00;49.60;;;;;;5075546;28;20036;-71
2021/05/07 01:07:52;;;;;;;2.70;0.50;;;21.10;49.20;;;;;;5077812;28;20093;-70
2021/05/07 01:10:19;;;;;;;2.45;0.70;;;21.00;49.50;;;;;;5062641;28;20025;-71
2021/05/07 01:12:46;;;;;;;0.50;0.50;;;21.00;49.90;;;;;;5075813;28;20117;-70
2021/05/07 01:15:19;;;;;;;1.02;0.60;;;21.00;49.70;;;;;;5071598;28;20028;-71
2021/05/07 01:17:46;;;;;;;;;;;20.90;49.70;;;;;;5072756;28;20470;-70
2021/05/07 01:20:12;;;;;;;1.38;1.02;;;21.00;50.20;;;;;;5067442;28;20375;-70
2021/05/07 01:22:43;;;;;;;1.73;1.60;;;20.90;50.80;;;;;;5066724;28;20474;-70
2021/05/07 01:25:11;;;;;;;1.00;0.77;;;20.80;50.80;;;;;;5071156;28;20036;-70
2021/05/07 01:27:42;;;;;;;0.75;0.70;;;20.60;51.40;;;;;;5079695;28;20114;-70
2021/05/07 01:30:24;;;;;;;0.88;0.80;;;20.50;51.20;;;;;;5071445;28;20017;-71
2021/05/07 01:32:51;;;;;;;1.13;0.90;;;20.30;51.70;;;;;;5072737;28;20044;-70
2021/05/07 01:35:24;;;;;;;1.15;1.02;;;20.20;51.80;;;;;;5065522;28;20396;-70
2021/05/07 01:37:53;;;;;;;0.90;0.90;;;20.10;51.90;;;;;;5067451;28;20040;-69
2021/05/07 01:40:25;;;;;;;1.30;1.20;;;20.00;52.10;;;;;;5071773;28;20060;-71
2021/05/07 01:42:53;;;;;;;0.85;0.85;;;19.90;52.10;;;;;;5068557;28;20088;-70
2021/05/07 01:45:30;;;;;;;0.90;0.90;;;19.80;53.00;;;;;;5068851;28;20107;-70
2021/05/07 01:47:57;;;;;;;0.93;0.82;;;19.70;52.80;;;;;;5072099;28;20043;-70
2021/05/07 01:50:28;;;;;;;1.55;0.65;;;19.60;52.90;;;;;;5078034;28;20043;-70
2021/05/07 01:52:56;;;;;;;0.90;0.90;;;19.40;53.30;;;;;;5066336;28;20074;-70
2021/05/07 01:55:27;;;;;;;0.95;0.80;;;19.40;53.80;;;;;;5079141;28;20067;-70
2021/05/07 01:57:54;;;;;;;0.75;0.75;;;19.40;53.40;;;;;;5069445;28;20024;-69
2021/05/07 02:00:23;;;;;;;0.77;0.77;;;19.30;53.40;;;;;;5077925;28;20062;-70
2021/05/07 02:02:50;;;;;;;4.00;0.85;;;19.20;54.00;;;;;;5071034;28;20031;-70
2021/05/07 02:05:20;;;;;;;0.63;0.63;;;19.20;53.70;;;;;;5069578;28;20032;-70
2021/05/07 02:07:47;;;;;;;1.35;0.70;;;19.10;54.00;;;;;;5068971;28;20041;-70
2021/05/07 02:10:19;;;;;;;0.70;0.70;;;18.90;54.00;;;;;;5067911;28;20032;-70
2021/05/07 02:12:46;;;;;;;1.08;0.80;;;18.80;54.30;;;;;;5068803;28;20025;-70
2021/05/07 02:15:17;;;;;;;0.68;0.68;;;18.70;54.20;;;;;;5066549;28;20043;-70
2021/05/07 02:17:44;;;;;;;1.30;0.80;;;18.60;54.20;;;;;;5070674;28;20135;-70
2021/05/07 02:20:13;;;;;;;0.70;0.70;;;18.60;55.10;;;;;;5070820;28;20024;-70
2021/05/07 02:22:41;;;;;;;1.10;0.90;;;18.50;54.70;;;;;;5070493;28;20029;-70
2021/05/07 02:25:09;;;;;;;0.82;0.82;;;18.50;54.70;;;;;;5074558;28;20063;-70
2021/05/07 02:27:36;;;;;;;0.80;0.80;;;18.30;55.50;;;;;;5074674;28;20032;-70
2021/05/07 02:30:03;;;;;;;1.33;0.95;;;18.20;55.50;;;;;;5043862;28;20045;-70
2021/05/07 02:32:30;;;;;;;2.38;0.90;;;18.00;55.80;;;;;;5054798;28;20161;-70
2021/05/07 02:34:56;;;;;;;2.05;1.13;;;17.90;55.40;;;;;;5059872;28;20343;-70
2021/05/07 02:37:22;;;;;;;1.83;0.90;;;17.70;56.50;;;;;;5055081;28;20137;-71
2021/05/07 02:39:49;;;;;;;1.60;1.20;;;17.60;57.00;;;;;;5060065;28;20040;-71
2021/05/07 02:42:15;;;;;;;0.90;0.90;;;17.40;56.60;;;;;;5059206;28;20050;-70
2021/05/07 02:44:42;;;;;;;1.13;1.00;;;17.30;57.70;;;;;;5054324;28;20033;-70
2021/05/07 02:47:08;;;;;;;1.15;0.90;;;17.00;57.50;;;;;;5057577;28;20025;-70
2021/05/07 02:49:35;;;;;;;1.02;0.98;;;16.90;58.10;;;;;;5056242;28;20043;-71
2021/05/07 02:52:03;;;;;;;1.38;0.95;;;16.80;58.50;;;;;;5058851;28;20029;-71
2021/05/07 02:54:30;;;;;;;0.80;0.70;;;16.90;58.90;;;;;;5060723;28;20016;-70
2021/05/07 02:56:57;;;;;;;1.65;1.00;;;17.00;58.10;;;;;;5061139;28;20102;-70
2021/05/07 02:59:24;;;;;;;0.90;0.90;;;16.80;58.40;;;;;;5060780;28;20036;-69
2021/05/07 03:01:51;;;;;;;1.27;1.10;;;16.90;58.60;;;;;;5063535;28;20028;-70
2021/05/07 03:04:21;;;;;;;0.90;0.90;;;16.70;58.00;;;;;;5062443;28;20350;-71
2021/05/07 03:06:50;;;;;;;1.63;0.93;;;16.40;59.30;;;;;;5061405;28;20033;-70
2021/05/07 03:09:20;;;;;;;1.20;1.10;;;16.60;59.30;;;;;;5060657;28;20627;-71
2021/05/07 03:11:46;;;;;;;2.35;0.80;;;16.50;58.40;;;;;;5062670;28;20025;-70
2021/05/07 03:14:13;;;;;;;0.90;0.90;;;16.60;58.80;;;;;;5062014;28;20085;-71
2021/05/07 03:16:40;;;;;;;0.88;0.88;;;16.60;59.30;;;;;;5058593;28;20478;-71
2021/05/07 03:19:07;;;;;;;3.05;0.80;;;16.40;60.20;;;;;;5056300;28;20036;-70
2021/05/07 03:21:37;;;;;;;0.85;0.85;;;16.20;60.80;;;;;;5054550;28;20671;-70
2021/05/07 03:24:07;;;;;;;1.23;1.10;;;16.10;59.80;;;;;;5054761;28;20025;-70
2021/05/07 03:26:34;;;;;;;3.40;1.05;;;16.10;60.70;;;;;;5060321;28;20037;-71
2021/05/07 03:29:06;;;;;;;1.35;1.20;;;16.20;59.70;;;;;;5059223;28;20029;-70
2021/05/07 03:31:35;;;;;;;1.80;1.35;;;16.30;59.30;;;;;;5060455;28;20052;-70
2021/05/07 03:34:05;;;;;;;2.78;1.50;;;16.50;59.90;;;;;;5054921;28;20044;-70
2021/05/07 03:36:34;;;;;;;2.92;0.80;;;16.40;58.50;;;;;;5063038;28;20116;-70
2021/05/07 03:39:01;;;;;;;3.30;1.60;;;16.30;59.60;;;;;;5070407;28;20039;-70
2021/05/07 03:41:30;;;;;;;1.30;1.20;;;16.20;58.90;;;;;;5064366;28;20062;-69
2021/05/07 03:43:58;;;;;;;4.47;1.40;;;15.90;59.60;;;;;;5069420;28;20799;-69
2021/05/07 03:46:24;;;;;;;5.13;1.73;;;16.40;58.10;;;;;;5068166;28;20353;-69
2021/05/07 03:48:50;;;;;;;6.38;1.90;;;16.30;58.20;;;;;;5062049;28;20040;-70
2021/05/07 03:51:17;;;;;;;6.88;2.10;;;16.30;57.80;;;;;;5058371;28;20182;-70
2021/05/07 03:53:44;;;;;;;9.23;1.83;;;16.30;57.60;;;;;;5066415;28;20036;-69
2021/05/07 03:56:10;;;;;;;6.15;1.83;;;16.00;57.90;;;;;;5052344;28;20032;-69
2021/05/07 03:58:37;;;;;;;7.32;1.85;;;16.10;57.70;;;;;;5060082;28;20032;-70
2021/05/07 04:01:05;;;;;;;6.00;1.50;;;16.10;57.60;;;;;;5056455;28;20524;-70
2021/05/07 04:03:31;;;;;;;7.47;3.03;;;15.90;57.80;;;;;;5061336;28;20462;-70
2021/05/07 04:05:58;;;;;;;10.95;2.65;;;15.90;58.40;;;;;;5062035;28;20506;-70
2021/05/07 04:08:27;;;;;;;14.13;2.35;;;16.00;58.20;;;;;;5062957;28;20032;-70
2021/05/07 04:13:39;;;;;;;12.00;2.47;;;15.90;57.70;;;;;;5057490;28;20128;-71
2021/05/07 04:16:07;;;;;;;8.95;2.45;;;16.00;57.80;;;;;;5053876;28;20020;-70
2021/05/07 04:18:35;;;;;;;5.53;2.35;;;15.90;57.70;;;;;;5047546;28;20025;-70
2021/05/07 04:21:02;;;;;;;11.40;2.17;;;16.00;57.30;;;;;;5050508;28;20044;-69
2021/05/07 04:23:28;;;;;;;7.25;2.17;;;15.80;58.40;;;;;;5053004;28;20029;-70
2021/05/07 04:25:55;;;;;;;12.45;2.53;;;15.90;57.60;;;;;;5067343;28;20400;-72
2021/05/07 04:28:22;;;;;;;11.18;3.28;;;16.00;57.20;;;;;;5056879;28;20040;-72
2021/05/07 04:30:49;;;;;;;12.35;2.47;;;16.00;56.70;;;;;;5058270;28;20488;-72
2021/05/07 04:33:16;;;;;;;10.55;3.67;;;15.80;57.20;;;;;;5063777;28;20366;-73
2021/05/07 04:35:43;;;;;;;17.75;3.45;;;16.00;57.40;;;;;;5063670;28;20032;-71
2021/05/07 04:38:09;;;;;;;17.38;3.33;;;15.80;57.40;;;;;;5065863;28;20033;-71
2021/05/07 04:40:36;;;;;;;21.38;4.07;;;15.70;57.10;;;;;;5067803;28;20028;-71
2021/05/07 04:43:04;;;;;;;7.60;2.15;;;15.60;57.20;;;;;;5054816;28;20412;-70
2021/05/07 04:45:32;;;;;;;7.88;2.95;;;15.60;57.40;;;;;;5059257;28;20076;-70
2021/05/07 04:47:58;;;;;;;7.05;3.03;;;15.50;57.50;;;;;;5060577;28;20060;-69
2021/05/07 04:50:25;;;;;;;8.48;2.30;;;15.40;57.60;;;;;;5053967;28;20036;-69
2021/05/07 04:52:51;;;;;;;10.52;2.90;;;15.60;56.90;;;;;;5052286;28;21626;-69
2021/05/07 04:55:18;;;;;;;16.80;2.97;;;15.60;56.90;;;;;;5054769;28;20497;-69
2021/05/07 04:57:44;;;;;;;13.48;2.90;;;15.60;56.40;;;;;;5066723;28;20484;-69
2021/05/07 05:00:11;;;;;;;11.05;2.92;;;15.70;55.70;;;;;;5056389;28;20683;-69
2021/05/07 05:02:38;;;;;;;14.35;2.83;;;15.70;55.90;;;;;;5062086;28;20099;-69
2021/05/07 05:05:05;;;;;;;10.98;4.15;;;15.80;55.20;;;;;;5065979;28;20024;-69
2021/05/07 05:07:34;;;;;;;12.38;3.60;;;15.70;55.90;;;;;;5052009;28;20021;-70
2021/05/07 05:10:00;;;;;;;16.30;2.65;;;15.70;55.80;;;;;;5067507;28;20017;-70
2021/05/07 05:12:27;;;;;;;11.15;2.35;;;15.80;55.20;;;;;;5070078;28;20029;-70
2021/05/07 05:14:53;;;;;;;9.70;3.25;;;15.90;55.40;;;;;;5067726;28;20031;-69
2021/05/07 05:17:20;;;;;;;5.57;2.40;;;15.80;55.40;;;;;;5059400;28;20047;-70
2021/05/07 05:19:47;;;;;;;13.93;2.78;;;15.70;55.70;;;;;;5057284;28;20017;-70
2021/05/07 05:22:14;;;;;;;11.13;2.88;;;15.70;55.80;;;;;;5054318;28;20111;-70
2021/05/07 05:24:42;;;;;;;9.57;3.45;;;15.60;56.30;;;;;;5062287;28;20490;-69
2021/05/07 05:27:08;;;;;;;9.90;2.47;;;15.60;56.30;;;;;;5053808;28;20021;-69
2021/05/07 05:29:35;;;;;;;12.70;3.05;;;15.60;56.70;;;;;;5056220;28;20025;-69
2021/05/07 05:32:01;;;;;;;20.10;3.03;;;15.70;56.80;;;;;;5059073;28;20021;-69
2021/05/07 05:34:28;;;;;;;12.73;4.07;;;15.60;56.90;;;;;;5060563;28;20376;-69
2021/05/07 05:36:54;;;;;;;10.70;3.28;;;15.40;57.20;;;;;;5058397;28;20028;-69
2021/05/07 05:39:20;;;;;;;17.95;3.15;;;15.50;57.50;;;;;;5061442;28;20028;-69
2021/05/07 05:41:47;;;;;;;15.00;2.45;;;15.40;57.50;;;;;;5066605;28;20119;-70
2021/05/07 05:44:13;;;;;;;22.20;3.28;;;15.50;57.50;;;;;;5059312;28;20112;-70
2021/05/07 05:46:40;;;;;;;16.60;2.35;;;15.40;57.60;;;;;;5060466;28;20142;-69
2021/05/07 05:49:06;;;;;;;9.77;2.55;;;15.30;57.90;;;;;;5058566;28;20366;-69
2021/05/07 05:51:33;;;;;;;11.43;2.42;;;15.30;58.30;;;;;;5054957;28;20044;-69
2021/05/07 05:54:00;;;;;;;13.75;4.10;;;15.30;58.00;;;;;;5052213;28;20135;-70
2021/05/07 05:56:26;;;;;;;9.75;2.72;;;15.30;58.30;;;;;;5066672;28;20043;-69
2021/05/07 05:58:53;;;;;;;9.73;2.63;;;15.30;58.00;;;;;;5053191;28;20032;-69
2021/05/07 06:01:19;;;;;;;10.32;2.70;;;15.30;58.70;;;;;;5068417;28;20024;-69
2021/05/07 06:03:45;;;;;;;18.80;2.83;;;15.30;58.80;;;;;;5057485;28;20022;-70
2021/05/07 06:06:12;;;;;;;12.43;3.03;;;15.20;58.70;;;;;;5057698;28;20022;-70
2021/05/07 06:08:38;;;;;;;11.27;2.83;;;15.10;59.10;;;;;;5065235;28;20058;-70
2021/05/07 06:11:05;;;;;;;18.83;4.55;;;15.00;59.00;;;;;;5055878;28;20028;-70
2021/05/07 06:13:31;;;;;;;15.48;3.22;;;14.90;59.10;;;;;;5064453;28;20021;-69
2021/05/07 06:15:58;;;;;;;15.13;3.45;;;15.10;59.40;;;;;;5054760;28;20358;-70
2021/05/07 06:18:24;;;;;;;9.35;3.15;;;15.10;59.60;;;;;;5062022;28;20025;-69
2021/05/07 06:20:51;;;;;;;7.13;1.98;;;15.10;58.70;;;;;;5053503;28;20047;-69
2021/05/07 06:23:17;;;;;;;14.18;2.90;;;15.10;59.10;;;;;;5063193;28;20527;-69
2021/05/07 06:25:43;;;;;;;16.77;2.63;;;15.20;58.70;;;;;;5056007;28;20021;-70
2021/05/07 06:28:10;;;;;;;15.07;3.38;;;15.10;59.10;;;;;;5059716;28;20508;-69
2021/05/07 06:30:36;;;;;;;14.05;3.05;;;15.00;59.50;;;;;;5062628;28;20063;-70
2021/05/07 06:33:03;;;;;;;12.25;2.88;;;15.00;59.20;;;;;;5065021;28;20081;-70
2021/05/07 06:35:29;;;;;;;11.98;2.90;;;15.10;59.40;;;;;;5057212;28;20056;-70
2021/05/07 06:37:57;;;;;;;11.48;2.75;;;14.80;59.70;;;;;;5059228;28;20033;-69
2021/05/07 06:40:23;;;;;;;20.75;3.20;;;14.90;60.20;;;;;;5056911;28;20021;-70
2021/05/07 06:42:50;;;;;;;14.65;3.05;;;14.80;59.90;;;;;;5054164;28;20427;-70
2021/05/07 06:45:16;;;;;;;7.22;2.10;;;14.70;60.50;;;;;;5065541;28;20099;-70
2021/05/07 06:47:43;;;;;;;10.30;3.10;;;14.70;59.60;;;;;;5057127;28;20024;-70
2021/05/07 06:50:12;;;;;;;14.80;3.33;;;14.90;60.00;;;;;;5056201;28;20093;-71
2021/05/07 06:52:42;;;;;;;13.20;4.05;;;14.90;60.00;;;;;;5050102;28;20477;-70
2021/05/07 06:55:11;;;;;;;14.63;3.30;;;14.90;60.50;;;;;;5061682;28;20578;-70
2021/05/07 06:57:38;;;;;;;10.02;3.10;;;14.90;61.00;;;;;;5058687;28;20116;-70
2021/05/07 07:00:07;;;;;;;17.92;2.83;;;14.80;61.70;;;;;;5053970;28;20031;-70
2021/05/07 07:02:34;;;;;;;7.80;2.55;;;14.80;61.90;;;;;;5064519;28;20032;-70
2021/05/07 07:05:00;;;;;;;17.55;3.92;;;14.70;62.50;;;;;;5060988;28;20025;-69
2021/05/07 07:07:28;;;;;;;10.80;2.95;;;14.50;63.90;;;;;;5060255;28;20075;-69
2021/05/07 07:09:54;;;;;;;18.80;3.85;;;14.30;63.70;;;;;;5058744;28;20029;-70
2021/05/07 07:12:21;;;;;;;11.65;2.63;;;14.40;63.90;;;;;;5058515;28;20036;-70
2021/05/07 07:14:47;;;;;;;12.30;3.42;;;14.30;63.80;;;;;;5053437;28;20032;-70
2021/05/07 07:17:16;;;;;;;11.50;4.10;;;14.30;63.80;;;;;;5065048;28;20040;-70
2021/05/07 07:19:42;;;;;;;12.75;3.30;;;14.30;63.80;;;;;;5053599;28;20017;-70
2021/05/07 07:22:09;;;;;;;11.63;2.63;;;14.30;63.40;;;;;;5056854;28;20036;-70
2021/05/07 07:24:35;;;;;;;9.75;3.30;;;14.30;63.60;;;;;;5055934;28;20504;-70
2021/05/07 07:27:02;;;;;;;14.30;3.13;;;14.20;63.30;;;;;;5060840;28;20062;-70
2021/05/07 07:29:28;;;;;;;7.00;2.10;;;14.30;63.40;;;;;;5060445;28;20033;-70
2021/05/07 07:31:54;;;;;;;9.98;2.17;;;14.30;63.20;;;;;;5061379;28;20107;-70
2021/05/07 07:34:21;;;;;;;9.45;1.90;;;14.20;63.30;;;;;;5060248;28;20056;-69
2021/05/07 07:36:48;;;;;;;14.82;3.35;;;14.30;62.90;;;;;;5056642;28;20050;-70
2021/05/07 07:39:18;;;;;;;10.65;2.75;;;14.20;63.50;;;;;;5064851;28;20028;-70
2021/05/07 07:41:48;;;;;;;8.60;3.42;;;14.20;63.20;;;;;;5058836;28;20025;-70
2021/05/07 07:44:14;;;;;;;11.73;2.60;;;14.20;63.10;;;;;;5057831;28;20020;-70
2021/05/07 07:46:42;;;;;;;11.60;2.38;;;14.30;63.80;;;;;;5054975;28;20094;-70
2021/05/07 07:49:09;;;;;;;9.77;2.33;;;14.30;63.20;;;;;;5054368;28;20060;-70
2021/05/07 07:51:35;;;;;;;23.48;3.08;;;14.40;63.40;;;;;;5051455;28;20032;-70
2021/05/07 07:54:07;;;;;;;8.32;3.13;;;14.30;62.90;;;;;;5056625;28;20085;-70
2021/05/07 07:56:34;;;;;;;14.15;4.75;;;14.20;63.50;;;;;;5052099;28;20045;-70
2021/05/07 07:59:01;;;;;;;10.63;4.28;;;14.20;63.10;;;;;;5067019;28;20071;-69
2021/05/07 08:01:27;;;;;;;14.75;2.55;;;14.40;63.50;;;;;;5054861;28;20084;-70
2021/05/07 08:03:55;;;;;;;19.67;4.18;;;14.20;63.50;;;;;;5051883;28;20320;-68
2021/05/07 08:06:22;;;;;;;10.90;2.95;;;14.40;63.40;;;;;;5052035;28;20086;-70
2021/05/07 08:08:49;;;;;;;11.20;3.17;;;14.40;63.40;;;;;;5058959;28;20041;-70
2021/05/07 08:11:16;;;;;;;9.93;2.33;;;14.40;62.60;;;;;;5057215;28;20025;-70
2021/05/07 08:13:43;;;;;;;12.52;2.33;;;14.20;62.40;;;;;;5056401;28;20499;-70
2021/05/07 08:16:10;;;;;;;14.13;3.65;;;14.40;62.60;;;;;;5060572;28;20028;-70
2021/05/07 08:18:36;;;;;;;12.38;2.78;;;14.40;62.70;;;;;;5053615;28;20037;-69
2021/05/07 08:21:03;;;;;;;7.72;3.58;;;14.40;62.70;;;;;;5057983;28;21262;-70
2021/05/07 08:23:29;;;;;;;9.88;2.42;;;14.30;62.70;;;;;;5053660;28;20021;-70
2021/05/07 08:25:56;;;;;;;12.18;2.78;;;14.40;63.20;;;;;;5067993;28;20014;-70
2021/05/07 08:28:22;;;;;;;10.30;2.45;;;14.10;62.50;;;;;;5057066;28;20040;-70
2021/05/07 08:30:49;;;;;;;14.77;3.47;;;14.30;62.50;;;;;;5063163;28;20060;-70
2021/05/07 08:33:15;;;;;;;18.38;4.45;;;14.10;62.60;;;;;;5060061;28;20025;-70
2021/05/07 08:35:42;;;;;;;7.40;2.45;;;14.30;62.00;;;;;;5061687;28;20091;-70
2021/05/07 08:38:08;;;;;;;7.15;2.55;;;14.40;61.50;;;;;;5058205;28;20041;-70
2021/05/07 08:40:35;;;;;;;9.88;2.88;;;14.30;61.00;;;;;;5055727;28;20117;-70
2021/05/07 08:43:05;;;;;;;10.57;3.10;;;14.40;60.60;;;;;;5058039;28;20506;-70
2021/05/07 08:45:32;;;;;;;18.33;3.15;;;14.30;60.50;;;;;;5058775;28;20470;-70
2021/05/07 08:47:59;;;;;;;11.30;2.78;;;14.30;60.80;;;;;;5068945;28;20487;-70
2021/05/07 08:50:25;;;;;;;21.85;5.28;;;14.20;60.80;;;;;;5060223;28;20084;-71
2021/05/07 08:52:51;;;;;;;13.63;4.25;;;14.40;60.70;;;;;;5069524;28;20106;-70
2021/05/07 08:55:18;;;;;;;8.40;3.15;;;14.40;60.60;;;;;;5065247;28;20428;-70
2021/05/07 08:57:44;;;;;;;13.30;3.50;;;14.40;60.90;;;;;;5060663;28;20025;-70
2021/05/07 09:00:12;;;;;;;8.57;2.47;;;14.40;61.40;;;;;;5057678;28;20028;-70
2021/05/07 09:02:38;;;;;;;19.48;4.53;;;14.40;62.30;;;;;;5059644;28;20036;-70
2021/05/07 09:05:05;;;;;;;11.07;2.67;;;14.40;62.10;;;;;;5069033;28;20032;-69
2021/05/07 09:07:33;;;;;;;12.05;3.45;;;14.30;62.80;;;;;;5057799;28;20029;-70
2021/05/07 09:10:02;;;;;;;13.55;2.38;;;14.30;63.00;;;;;;5063714;28;20071;-69
2021/05/07 09:12:40;;;;;;;9.27;3.45;;;14.30;63.20;;;;;;5060772;28;20104;-70
2021/05/07 09:15:09;;;;;;;12.27;2.85;;;14.30;63.60;;;;;;5070962;28;20465;-70
2021/05/07 09:17:38;;;;;;;12.88;2.80;;;14.10;63.20;;;;;;5058509;28;20039;-70
2021/05/07 09:20:09;;;;;;;12.93;3.97;;;14.20;64.20;;;;;;5064164;28;20439;-70
2021/05/07 09:22:37;;;;;;;8.88;2.63;;;14.20;63.80;;;;;;5056540;28;20155;-70
2021/05/07 09:25:15;;;;;;;24.60;3.20;;;14.10;64.90;;;;;;5059860;28;20016;-70
2021/05/07 09:27:42;;;;;;;9.30;3.20;;;14.00;65.00;;;;;;5041166;28;20371;-70
2021/05/07 09:30:21;;;;;;;15.23;3.30;;;13.80;65.20;;;;;;5061949;28;20021;-70
2021/05/07 09:32:55;;;;;;;13.43;2.50;;;13.80;64.10;;;;;;5053468;28;20029;-70
2021/05/07 09:35:29;;;;;;;12.55;3.42;;;13.80;65.00;;;;;;5064492;28;20048;-70
2021/05/07 09:38:01;;;;;;;12.10;2.72;;;14.00;64.60;;;;;;5067275;28;20025;-70
2021/05/07 09:40:29;;;;;;;9.00;2.53;;;14.10;65.10;;;;;;5063373;28;20025;-70
2021/05/07 09:43:10;;;;;;;13.38;3.28;;;14.20;64.90;;;;;;5061307;28;20064;-70
2021/05/07 09:45:39;;;;;;;17.63;3.00;;;14.10;63.90;;;;;;5060388;28;20044;-70
2021/05/07 09:48:25;;;;;;;16.27;2.53;;;14.10;63.90;;;;;;5059275;28;20029;-70
2021/05/07 09:50:57;;;;;;;17.73;4.22;;;14.10;63.80;;;;;;5060703;28;20068;-70
2021/05/07 09:53:25;;;;;;;17.02;3.33;;;14.30;63.60;;;;;;5058614;28;20074;-70
2021/05/07 09:56:01;;;;;;;14.38;3.67;;;14.00;63.50;;;;;;5055781;28;20024;-70
2021/05/07 09:58:28;;;;;;;16.58;4.13;;;14.10;63.70;;;;;;5060615;28;20052;-70
2021/05/07 10:00:58;;;;;;;20.33;3.38;;;14.30;62.80;;;;;;5067520;28;20514;-70
2021/05/07 10:03:25;;;;;;;19.25;6.25;;;14.20;62.50;;;;;;5054452;28;20028;-70
2021/05/07 10:05:51;;;;;;;20.63;4.72;;;14.30;62.60;;;;;;5067707;28;20056;-70
2021/05/07 10:08:18;;;;;;;14.50;3.20;;;14.00;62.70;;;;;;5068809;28;20044;-70
2021/05/07 10:10:47;;;;;;;9.15;2.78;;;14.00;62.80;;;;;;5067284;28;20029;-70
2021/05/07 10:13:27;;;;;;;17.45;3.60;;;14.10;62.20;;;;;;5064489;28;20033;-70
2021/05/07 10:16:10;;;;;;;22.90;4.57;;;14.00;62.30;;;;;;5042380;28;20025;-70
2021/05/07 10:18:38;;;;;;;15.77;4.75;;;14.00;62.00;;;;;;5057745;28;20033;-70
2021/05/07 10:21:09;;;;;;;18.70;3.30;;;14.00;62.30;;;;;;5056825;28;20033;-70
2021/05/07 10:23:36;;;;;;;16.17;3.42;;;14.30;61.80;;;;;;5059566;28;20025;-70
2021/05/07 10:26:05;;;;;;;19.80;3.75;;;14.10;61.60;;;;;;5060296;28;20020;-70
2021/05/07 10:28:53;;;;;;;15.13;4.78;;;14.20;61.70;;;;;;5063389;28;20029;-70
2021/05/07 10:31:21;;;;;;;14.43;3.05;;;14.10;61.60;;;;;;5055968;28;20028;-70
2021/05/07 10:33:58;;;;;;;12.30;3.92;;;14.20;61.10;;;;;;5058655;28;20451;-70
2021/05/07 10:36:38;;;;;;;17.20;4.82;;;14.20;61.00;;;;;;5057861;28;20052;-70
2021/05/07 10:39:26;;;;;;;8.38;2.80;;;14.00;62.00;;;;;;5056236;28;20115;-70
2021/05/07 10:41:54;;;;;;;11.88;2.67;;;14.10;61.20;;;;;;5056684;28;20108;-70
2021/05/07 10:44:22;;;;;;;14.88;2.72;;;14.00;61.00;;;;;;5051493;28;20517;-70
2021/05/07 10:47:10;;;;;;;10.07;3.42;;;14.10;60.40;;;;;;5063703;28;20040;-70
2021/05/07 10:49:41;;;;;;;13.00;3.22;;;14.00;60.50;;;;;;5057630;28;20021;-70
2021/05/07 10:52:09;;;;;;;10.05;3.33;;;14.00;59.90;;;;;;5060464;28;20021;-70
2021/05/07 10:54:46;;;;;;;9.70;3.03;;;13.90;60.00;;;;;;5058835;28;20041;-70
2021/05/07 10:57:20;;;;;;;10.00;3.53;;;14.10;59.90;;;;;;5064724;28;20021;-70
2021/05/07 11:00:12;;;;;;;9.90;3.55;;;14.00;60.00;;;;;;5058250;28;20518;-70
2021/05/07 11:02:46;;;;;;;9.93;3.35;;;14.10;59.90;;;;;;5054413;28;20429;-70
2021/05/07 11:05:33;;;;;;;17.65;4.03;;;14.00;59.90;;;;;;5057175;28;20056;-70
2021/05/07 11:07:59;;;;;;;11.95;3.58;;;14.10;59.60;;;;;;5053599;28;20496;-70
2021/05/07 11:10:29;;;;;;;8.30;2.33;;;14.10;59.70;;;;;;5057644;28;20450;-70
2021/05/07 11:12:56;;;;;;;14.68;3.13;;;14.20;59.50;;;;;;5062665;28;20036;-69
2021/05/07 11:15:23;;;;;;;35.83;4.10;;;14.10;59.50;;;;;;5053283;28;20029;-70
2021/05/07 11:18:03;;;;;;;17.55;4.50;;;14.00;59.80;;;;;;5062995;28;20037;-70
2021/05/07 11:20:34;;;;;;;10.43;3.55;;;14.10;59.60;;;;;;5062478;28;20056;-70
2021/05/07 11:23:03;;;;;;;15.20;3.30;;;14.20;59.30;;;;;;5060048;28;20039;-70
2021/05/07 11:25:33;;;;;;;11.52;3.03;;;14.10;60.00;;;;;;5054048;28;20029;-70
2021/05/07 11:28:17;;;;;;;15.07;3.42;;;14.10;59.70;;;;;;5059514;28;20029;-70
2021/05/07 11:30:53;;;;;;;14.02;3.40;;;14.10;59.60;;;;;;5040193;28;20048;-70
2021/05/07 11:33:22;;;;;;;14.70;3.88;;;14.20;59.30;;;;;;5065942;28;20033;-70
2021/05/07 11:36:16;;;;;;;15.38;3.13;;;14.00;59.60;;;;;;5054263;28;20224;-70
2021/05/07 11:38:44;;;;;;;17.38;4.18;;;14.00;59.70;;;;;;5065364;28;20103;-69
2021/05/07 11:41:26;;;;;;;20.52;3.92;;;14.00;60.10;;;;;;5054252;28;20443;-70
2021/05/07 11:43:54;;;;;;;;;;;14.10;59.50;;;;;;5064256;28;20031;-70
2021/05/07 11:46:20;;;;;;;11.23;3.08;;;14.20;59.10;;;;;;5052937;28;19916;-70
2021/05/07 11:48:49;;;;;;;10.65;2.78;;;14.00;59.20;;;;;;5060380;28;20021;-70
2021/05/07 11:51:15;;;;;;;12.88;2.75;;;13.90;59.60;;;;;;5058038;28;20049;-70
2021/05/07 11:53:43;;;;;;;19.05;4.80;;;13.70;59.60;;;;;;5058692;28;20021;-70
2021/05/07 11:56:21;;;;;;;8.68;3.38;;;13.90;59.70;;;;;;5055608;28;20098;-70
2021/05/07 11:58:53;;;;;;;12.88;3.22;;;13.70;59.80;;;;;;5061497;28;20048;-70
2021/05/07 12:01:24;;;;;;;14.57;3.47;;;13.60;59.70;;;;;;5064359;28;20043;-70
2021/05/07 12:03:53;;;;;;;12.60;3.30;;;13.60;59.60;;;;;;5061992;28;20020;-70
2021/05/07 12:06:28;;;;;;;14.40;2.95;;;13.50;60.30;;;;;;5058850;28;20021;-70
2021/05/07 12:09:06;;;;;;;6.07;2.55;;;13.50;60.10;;;;;;5059141;28;20114;-70
2021/05/07 12:11:32;;;;;;;12.20;3.88;;;13.30;60.50;;;;;;5066818;28;20131;-70
2021/05/07 12:14:11;;;;;;;13.95;3.00;;;13.40;60.50;;;;;;5060010;28;20065;-70
2021/05/07 12:16:38;;;;;;;13.95;3.25;;;13.50;60.20;;;;;;5062531;28;20429;-70
2021/05/07 12:19:05;;;;;;;13.73;4.38;;;13.60;60.20;;;;;;5056299;28;20025;-70
2021/05/07 12:21:42;;;;;;;8.85;3.03;;;13.60;60.20;;;;;;5065391;28;20395;-70
2021/05/07 12:24:12;;;;;;;11.80;3.00;;;13.60;60.90;;;;;;5054051;28;20033;-70
2021/05/07 12:26:49;;;;;;;13.20;2.92;;;13.50;60.50;;;;;;5066500;28;20163;-70
2021/05/07 12:29:17;;;;;;;18.60;3.60;;;13.50;60.80;;;;;;5055721;28;20355;-70
2021/05/07 12:31:43;;;;;;;12.27;3.80;;;13.50;60.80;;;;;;5059631;28;20031;-70
2021/05/07 12:34:15;;;;;;;21.05;3.80;;;13.40;61.20;;;;;;5057183;28;20086;-70
2021/05/07 12:36:43;;;;;;;14.25;3.10;;;13.40;61.10;;;;;;5060367;28;20103;-70
2021/05/07 12:39:13;;;;;;;17.88;4.47;;;13.50;61.50;;;;;;5062194;28;20036;-70
2021/05/07 12:41:39;;;;;;;13.88;3.63;;;13.50;62.00;;;;;;5056550;28;20033;-69
2021/05/07 12:44:13;;;;;;;15.68;3.13;;;13.70;61.40;;;;;;5061398;28;20457;-70
2021/05/07 12:46:39;;;;;;;23.08;5.47;;;13.80;60.30;;;;;;5061155;28;20083;-70
2021/05/07 12:49:06;;;;;;;12.32;4.22;;;13.70;60.60;;;;;;5065261;28;20032;-70
2021/05/07 12:51:32;;;;;;;10.27;3.55;;;13.80;60.50;;;;;;5057219;28;20052;-70
2021/05/07 12:53:58;;;;;;;15.50;4.03;;;13.70;60.70;;;;;;5067663;28;20074;-70